sensor_id;sensor_type;location;lat;lon;timestamp;pressure;altitude;pressure_sealevel;temperature;humidity
20019;BME280;10170;42.502;26.526;2023-05-11T00:00:49;100213.16;;;7.22;100.00
20019;BME280;10170;42.502;26.526;2023-05-11T00:03:16;100208.50;;;7.24;100.00
20019;BME280;10170;42.502;26.526;2023-05-11T00:05:46;100207.34;;;7.26;100.00
20019;BME280;10170;42.502;26.526;2023-05-11T00:08:13;100210.31;;;7.23;100.00
20019;BME280;10170;42.502;26.526;2023-05-11T00:10:46;100210.75;;;7.35;100.00
20019;BME280;10170;42.502;26.526;2023-05-11T00:13:13;100214.94;;;7.29;100.00
20019;BME280;10170;42.502;26.526;2023-05-11T00:15:40;100207.84;;;7.22;100.00
20019;BME280;10170;42.502;26.526;2023-05-11T00:18:07;100217.59;;;7.29;100.00
20019;BME280;10170;42.502;26.526;2023-05-11T00:20:34;100206.53;;;7.18;100.00
20019;BME280;10170;42.502;26.526;2023-05-11T00:23:00;100217.72;;;7.28;100.00
20019;BME280;10170;42.502;26.526;2023-05-11T00:25:27;100196.63;;;7.20;100.00
20019;BME280;10170;42.502;26.526;2023-05-11T00:27:54;100213.81;;;7.24;100.00
20019;BME280;10170;42.502;26.526;2023-05-11T00:30:21;100217.44;;;7.23;100.00
20019;BME280;10170;42.502;26.526;2023-05-11T00:32:49;100209.38;;;7.08;100.00
20019;BME280;10170;42.502;26.526;2023-05-11T00:35:17;100215.31;;;7.10;100.00
20019;BME280;10170;42.502;26.526;2023-05-11T00:37:44;100210.88;;;7.11;100.00
20019;BME280;10170;42.502;26.526;2023-05-11T00:40:11;100214.22;;;6.97;100.00
20019;BME280;10170;42.502;26.526;2023-05-11T00:42:37;100211.91;;;6.86;100.00
20019;BME280;10170;42.502;26.526;2023-05-11T00:45:05;100218.00;;;6.94;100.00
20019;BME280;10170;42.502;26.526;2023-05-11T00:47:32;100214.22;;;6.89;100.00
20019;BME280;10170;42.502;26.526;2023-05-11T00:50:00;100206.81;;;6.68;100.00
20019;BME280;10170;42.502;26.526;2023-05-11T00:52:26;100219.06;;;6.61;100.00
20019;BME280;10170;42.502;26.526;2023-05-11T00:54:53;100204.69;;;6.56;100.00
20019;BME280;10170;42.502;26.526;2023-05-11T00:57:20;100209.63;;;6.59;100.00
20019;BME280;10170;42.502;26.526;2023-05-11T00:59:48;100214.44;;;6.63;100.00
20019;BME280;10170;42.502;26.526;2023-05-11T01:02:15;100218.88;;;6.63;100.00
20019;BME280;10170;42.502;26.526;2023-05-11T01:04:42;100190.84;;;6.37;100.00
20019;BME280;10170;42.502;26.526;2023-05-11T01:07:18;100219.88;;;6.46;100.00
20019;BME280;10170;42.502;26.526;2023-05-11T01:15:09;100206.00;;;6.35;100.00
20019;BME280;10170;42.502;26.526;2023-05-11T01:20:55;100209.97;;;6.31;100.00
20019;BME280;10170;42.502;26.526;2023-05-11T01:23:39;100217.72;;;6.41;100.00
20019;BME280;10170;42.502;26.526;2023-05-11T01:26:29;100209.16;;;6.47;100.00
20019;BME280;10170;42.502;26.526;2023-05-11T01:31:45;100223.50;;;6.77;100.00
20019;BME280;10170;42.502;26.526;2023-05-11T01:34:19;100219.34;;;6.74;100.00
20019;BME280;10170;42.502;26.526;2023-05-11T01:36:53;100221.84;;;6.68;100.00
20019;BME280;10170;42.502;26.526;2023-05-11T01:39:29;100218.69;;;6.72;100.00
20019;BME280;10170;42.502;26.526;2023-05-11T01:42:02;100203.97;;;6.78;100.00
20019;BME280;10170;42.502;26.526;2023-05-11T01:44:30;100216.06;;;6.88;100.00
20019;BME280;10170;42.502;26.526;2023-05-11T01:47:01;100195.69;;;6.97;100.00
20019;BME280;10170;42.502;26.526;2023-05-11T01:49:31;100212.22;;;6.99;100.00
20019;BME280;10170;42.502;26.526;2023-05-11T01:52:01;100208.91;;;6.97;100.00
20019;BME280;10170;42.502;26.526;2023-05-11T01:54:29;100217.66;;;6.97;100.00
20019;BME280;10170;42.502;26.526;2023-05-11T01:56:58;100217.47;;;7.15;100.00
20019;BME280;10170;42.502;26.526;2023-05-11T01:59:27;100210.81;;;7.19;100.00
20019;BME280;10170;42.502;26.526;2023-05-11T02:01:54;100219.94;;;7.16;100.00
20019;BME280;10170;42.502;26.526;2023-05-11T02:04:22;100220.41;;;7.20;100.00
20019;BME280;10170;42.502;26.526;2023-05-11T02:06:51;100212.31;;;7.21;100.00
20019;BME280;10170;42.502;26.526;2023-05-11T02:09:20;100219.72;;;7.34;100.00
20019;BME280;10170;42.502;26.526;2023-05-11T02:11:48;100220.06;;;7.31;100.00
20019;BME280;10170;42.502;26.526;2023-05-11T02:14:17;100219.41;;;7.29;100.00
20019;BME280;10170;42.502;26.526;2023-05-11T02:16:47;100217.84;;;7.42;100.00
20019;BME280;10170;42.502;26.526;2023-05-11T02:19:15;100221.44;;;7.58;100.00
20019;BME280;10170;42.502;26.526;2023-05-11T02:21:43;100217.28;;;7.63;100.00
20019;BME280;10170;42.502;26.526;2023-05-11T02:24:12;100219.69;;;7.73;100.00
20019;BME280;10170;42.502;26.526;2023-05-11T02:26:38;100222.34;;;7.73;100.00
20019;BME280;10170;42.502;26.526;2023-05-11T02:29:05;100222.78;;;7.84;100.00
20019;BME280;10170;42.502;26.526;2023-05-11T02:31:35;100170.81;;;7.61;100.00
20019;BME280;10170;42.502;26.526;2023-05-11T02:34:10;100225.69;;;7.97;100.00
20019;BME280;10170;42.502;26.526;2023-05-11T02:36:45;100218.03;;;8.02;100.00
20019;BME280;10170;42.502;26.526;2023-05-11T02:39:15;100221.94;;;8.14;100.00
20019;BME280;10170;42.502;26.526;2023-05-11T02:41:44;100213.31;;;8.12;100.00
20019;BME280;10170;42.502;26.526;2023-05-11T02:44:14;100221.28;;;8.12;100.00
20019;BME280;10170;42.502;26.526;2023-05-11T02:46:43;100223.59;;;8.15;100.00
20019;BME280;10170;42.502;26.526;2023-05-11T02:49:14;100222.56;;;8.24;100.00
20019;BME280;10170;42.502;26.526;2023-05-11T02:51:44;100228.44;;;8.34;100.00
20019;BME280;10170;42.502;26.526;2023-05-11T02:54:11;100224.91;;;8.42;100.00
20019;BME280;10170;42.502;26.526;2023-05-11T02:56:40;100229.00;;;8.22;100.00
20019;BME280;10170;42.502;26.526;2023-05-11T02:59:07;100234.91;;;8.01;100.00
20019;BME280;10170;42.502;26.526;2023-05-11T03:01:34;100232.22;;;8.09;100.00
20019;BME280;10170;42.502;26.526;2023-05-11T03:04:04;100234.16;;;7.93;100.00
20019;BME280;10170;42.502;26.526;2023-05-11T03:06:31;100236.28;;;7.97;100.00
20019;BME280;10170;42.502;26.526;2023-05-11T03:09:00;100231.28;;;8.02;100.00
20019;BME280;10170;42.502;26.526;2023-05-11T03:11:27;100241.22;;;8.00;100.00
20019;BME280;10170;42.502;26.526;2023-05-11T03:13:54;100228.53;;;8.18;100.00
20019;BME280;10170;42.502;26.526;2023-05-11T03:16:22;100241.88;;;8.33;100.00
20019;BME280;10170;42.502;26.526;2023-05-11T03:18:50;100238.69;;;8.37;100.00
20019;BME280;10170;42.502;26.526;2023-05-11T03:21:17;100233.38;;;8.37;100.00
20019;BME280;10170;42.502;26.526;2023-05-11T03:23:48;100235.91;;;8.31;100.00
20019;BME280;10170;42.502;26.526;2023-05-11T03:26:19;100239.13;;;8.18;100.00
20019;BME280;10170;42.502;26.526;2023-05-11T03:28:48;100244.06;;;8.21;100.00
20019;BME280;10170;42.502;26.526;2023-05-11T03:31:17;100253.34;;;8.17;100.00
20019;BME280;10170;42.502;26.526;2023-05-11T03:33:44;100238.84;;;8.13;100.00
20019;BME280;10170;42.502;26.526;2023-05-11T03:36:11;100250.00;;;8.23;100.00
20019;BME280;10170;42.502;26.526;2023-05-11T03:38:38;100249.47;;;8.36;100.00
20019;BME280;10170;42.502;26.526;2023-05-11T03:41:05;100250.88;;;8.46;100.00
20019;BME280;10170;42.502;26.526;2023-05-11T03:43:33;100256.91;;;8.40;100.00
20019;BME280;10170;42.502;26.526;2023-05-11T03:46:02;100242.56;;;8.27;100.00
20019;BME280;10170;42.502;26.526;2023-05-11T03:48:30;100251.81;;;8.23;100.00
20019;BME280;10170;42.502;26.526;2023-05-11T03:50:58;100256.00;;;8.25;100.00
20019;BME280;10170;42.502;26.526;2023-05-11T03:53:25;100236.03;;;8.37;100.00
20019;BME280;10170;42.502;26.526;2023-05-11T03:55:52;100258.34;;;8.43;100.00
20019;BME280;10170;42.502;26.526;2023-05-11T03:58:20;100241.63;;;8.42;100.00
20019;BME280;10170;42.502;26.526;2023-05-11T04:00:47;100252.53;;;8.47;100.00
20019;BME280;10170;42.502;26.526;2023-05-11T04:03:14;100253.13;;;8.35;100.00
20019;BME280;10170;42.502;26.526;2023-05-11T04:05:41;100252.56;;;8.39;100.00
20019;BME280;10170;42.502;26.526;2023-05-11T04:08:09;100262.34;;;8.39;100.00
20019;BME280;10170;42.502;26.526;2023-05-11T04:10:36;100259.34;;;8.42;100.00
20019;BME280;10170;42.502;26.526;2023-05-11T04:13:03;100260.47;;;8.47;100.00
20019;BME280;10170;42.502;26.526;2023-05-11T04:15:30;100247.00;;;8.34;100.00
20019;BME280;10170;42.502;26.526;2023-05-11T04:17:57;100262.47;;;8.45;100.00
20019;BME280;10170;42.502;26.526;2023-05-11T04:20:24;100245.63;;;8.38;100.00
20019;BME280;10170;42.502;26.526;2023-05-11T04:22:51;100259.41;;;8.57;100.00
20019;BME280;10170;42.502;26.526;2023-05-11T04:25:17;100251.75;;;8.62;100.00
20019;BME280;10170;42.502;26.526;2023-05-11T04:27:44;100255.78;;;8.72;100.00
20019;BME280;10170;42.502;26.526;2023-05-11T04:30:11;100258.97;;;8.68;100.00
20019;BME280;10170;42.502;26.526;2023-05-11T04:32:38;100264.81;;;8.63;100.00
20019;BME280;10170;42.502;26.526;2023-05-11T04:35:05;100263.69;;;8.58;100.00
20019;BME280;10170;42.502;26.526;2023-05-11T04:37:31;100268.63;;;8.61;100.00
20019;BME280;10170;42.502;26.526;2023-05-11T04:39:58;100261.94;;;8.73;100.00
20019;BME280;10170;42.502;26.526;2023-05-11T04:42:25;100262.91;;;8.72;100.00
20019;BME280;10170;42.502;26.526;2023-05-11T04:44:52;100267.38;;;8.94;100.00
20019;BME280;10170;42.502;26.526;2023-05-11T04:47:19;100273.13;;;8.97;100.00
20019;BME280;10170;42.502;26.526;2023-05-11T04:49:46;100277.56;;;8.82;100.00
20019;BME280;10170;42.502;26.526;2023-05-11T04:52:13;100284.34;;;8.85;100.00
20019;BME280;10170;42.502;26.526;2023-05-11T04:54:40;100278.47;;;9.12;100.00
20019;BME280;10170;42.502;26.526;2023-05-11T04:57:06;100288.81;;;9.36;100.00
20019;BME280;10170;42.502;26.526;2023-05-11T04:59:33;100280.69;;;9.37;100.00
20019;BME280;10170;42.502;26.526;2023-05-11T05:02:00;100295.50;;;9.46;100.00
20019;BME280;10170;42.502;26.526;2023-05-11T05:04:26;100293.16;;;9.66;100.00
20019;BME280;10170;42.502;26.526;2023-05-11T05:06:53;100293.69;;;9.62;100.00
20019;BME280;10170;42.502;26.526;2023-05-11T05:09:20;100289.94;;;9.71;100.00
20019;BME280;10170;42.502;26.526;2023-05-11T05:11:47;100284.81;;;9.69;100.00
20019;BME280;10170;42.502;26.526;2023-05-11T05:14:13;100282.94;;;9.84;100.00
20019;BME280;10170;42.502;26.526;2023-05-11T05:16:40;100285.44;;;9.86;100.00
20019;BME280;10170;42.502;26.526;2023-05-11T05:19:07;100284.78;;;9.98;100.00
20019;BME280;10170;42.502;26.526;2023-05-11T05:21:35;100293.25;;;10.08;100.00
20019;BME280;10170;42.502;26.526;2023-05-11T05:24:02;100279.44;;;10.13;100.00
20019;BME280;10170;42.502;26.526;2023-05-11T05:26:29;100296.69;;;10.38;100.00
20019;BME280;10170;42.502;26.526;2023-05-11T05:28:56;100305.56;;;10.45;100.00
20019;BME280;10170;42.502;26.526;2023-05-11T05:31:23;100293.19;;;10.16;100.00
20019;BME280;10170;42.502;26.526;2023-05-11T05:33:50;100298.22;;;10.47;100.00
20019;BME280;10170;42.502;26.526;2023-05-11T05:36:16;100298.03;;;10.48;100.00
20019;BME280;10170;42.502;26.526;2023-05-11T05:38:43;100308.00;;;10.61;100.00
20019;BME280;10170;42.502;26.526;2023-05-11T05:41:10;100303.38;;;10.97;100.00
20019;BME280;10170;42.502;26.526;2023-05-11T05:43:36;100311.03;;;11.07;100.00
20019;BME280;10170;42.502;26.526;2023-05-11T05:46:03;100304.59;;;11.22;100.00
20019;BME280;10170;42.502;26.526;2023-05-11T05:48:30;100306.28;;;11.23;100.00
20019;BME280;10170;42.502;26.526;2023-05-11T05:50:57;100310.28;;;11.40;100.00
20019;BME280;10170;42.502;26.526;2023-05-11T05:53:25;100314.63;;;11.48;100.00
20019;BME280;10170;42.502;26.526;2023-05-11T05:55:52;100310.16;;;11.55;100.00
20019;BME280;10170;42.502;26.526;2023-05-11T05:58:18;100321.84;;;11.54;100.00
20019;BME280;10170;42.502;26.526;2023-05-11T06:00:45;100331.81;;;11.73;100.00
20019;BME280;10170;42.502;26.526;2023-05-11T06:03:12;100336.72;;;12.10;100.00
20019;BME280;10170;42.502;26.526;2023-05-11T06:05:39;100338.31;;;11.98;100.00
20019;BME280;10170;42.502;26.526;2023-05-11T06:08:05;100346.88;;;12.28;100.00
20019;BME280;10170;42.502;26.526;2023-05-11T06:10:37;100345.53;;;12.04;100.00
20019;BME280;10170;42.502;26.526;2023-05-11T06:13:04;100348.06;;;12.19;100.00
20019;BME280;10170;42.502;26.526;2023-05-11T06:15:31;100345.13;;;12.74;100.00
20019;BME280;10170;42.502;26.526;2023-05-11T06:17:58;100353.53;;;12.71;100.00
20019;BME280;10170;42.502;26.526;2023-05-11T06:20:24;100362.41;;;12.85;100.00
20019;BME280;10170;42.502;26.526;2023-05-11T06:22:51;100359.28;;;12.61;100.00
20019;BME280;10170;42.502;26.526;2023-05-11T06:25:18;100353.75;;;12.69;100.00
20019;BME280;10170;42.502;26.526;2023-05-11T06:27:45;100359.91;;;12.63;100.00
20019;BME280;10170;42.502;26.526;2023-05-11T06:30:12;100346.38;;;12.91;100.00
20019;BME280;10170;42.502;26.526;2023-05-11T06:32:39;100342.56;;;13.07;100.00
20019;BME280;10170;42.502;26.526;2023-05-11T06:35:06;100350.91;;;12.84;100.00
20019;BME280;10170;42.502;26.526;2023-05-11T06:37:32;100349.25;;;12.90;100.00
20019;BME280;10170;42.502;26.526;2023-05-11T06:40:00;100341.06;;;13.63;100.00
20019;BME280;10170;42.502;26.526;2023-05-11T06:42:27;100345.91;;;13.99;100.00
20019;BME280;10170;42.502;26.526;2023-05-11T06:44:54;100351.09;;;13.87;100.00
20019;BME280;10170;42.502;26.526;2023-05-11T06:47:21;100319.72;;;13.43;100.00
20019;BME280;10170;42.502;26.526;2023-05-11T06:49:48;100349.06;;;13.76;100.00
20019;BME280;10170;42.502;26.526;2023-05-11T06:52:15;100354.66;;;13.42;100.00
20019;BME280;10170;42.502;26.526;2023-05-11T06:54:48;100342.13;;;13.36;100.00
20019;BME280;10170;42.502;26.526;2023-05-11T06:57:14;100347.88;;;13.46;100.00
20019;BME280;10170;42.502;26.526;2023-05-11T06:59:41;100352.56;;;13.77;100.00
20019;BME280;10170;42.502;26.526;2023-05-11T07:02:09;100354.66;;;13.55;100.00
20019;BME280;10170;42.502;26.526;2023-05-11T07:04:36;100349.50;;;13.60;100.00
20019;BME280;10170;42.502;26.526;2023-05-11T07:07:03;100345.69;;;14.07;100.00
20019;BME280;10170;42.502;26.526;2023-05-11T07:09:29;100351.91;;;13.81;100.00
20019;BME280;10170;42.502;26.526;2023-05-11T07:11:56;100344.66;;;13.95;100.00
20019;BME280;10170;42.502;26.526;2023-05-11T07:14:23;100346.53;;;13.94;100.00
20019;BME280;10170;42.502;26.526;2023-05-11T07:16:49;100346.31;;;14.02;100.00
20019;BME280;10170;42.502;26.526;2023-05-11T07:19:18;100339.34;;;14.45;100.00
20019;BME280;10170;42.502;26.526;2023-05-11T07:21:45;100355.56;;;13.93;100.00
20019;BME280;10170;42.502;26.526;2023-05-11T07:24:12;100349.28;;;13.61;100.00
20019;BME280;10170;42.502;26.526;2023-05-11T07:26:39;100338.03;;;13.33;100.00
20019;BME280;10170;42.502;26.526;2023-05-11T07:29:05;100348.69;;;13.20;100.00
20019;BME280;10170;42.502;26.526;2023-05-11T07:31:32;100348.09;;;13.12;100.00
20019;BME280;10170;42.502;26.526;2023-05-11T07:33:59;100345.41;;;13.12;100.00
20019;BME280;10170;42.502;26.526;2023-05-11T07:36:26;100338.56;;;13.68;100.00
20019;BME280;10170;42.502;26.526;2023-05-11T07:38:53;100343.38;;;14.67;100.00
20019;BME280;10170;42.502;26.526;2023-05-11T07:41:20;100334.59;;;14.85;100.00
20019;BME280;10170;42.502;26.526;2023-05-11T07:43:52;100357.31;;;15.32;100.00
20019;BME280;10170;42.502;26.526;2023-05-11T07:46:19;100361.53;;;15.21;100.00
20019;BME280;10170;42.502;26.526;2023-05-11T07:48:46;100361.13;;;14.93;100.00
20019;BME280;10170;42.502;26.526;2023-05-11T07:51:13;100360.97;;;14.44;100.00
20019;BME280;10170;42.502;26.526;2023-05-11T07:53:40;100351.00;;;14.13;100.00
20019;BME280;10170;42.502;26.526;2023-05-11T07:56:06;100363.34;;;14.14;100.00
20019;BME280;10170;42.502;26.526;2023-05-11T07:58:33;100360.00;;;14.25;100.00
20019;BME280;10170;42.502;26.526;2023-05-11T08:01:00;100370.28;;;14.22;100.00
20019;BME280;10170;42.502;26.526;2023-05-11T08:03:26;100353.56;;;14.77;100.00
20019;BME280;10170;42.502;26.526;2023-05-11T08:05:53;100336.88;;;14.82;100.00
20019;BME280;10170;42.502;26.526;2023-05-11T08:08:20;100343.84;;;15.14;100.00
20019;BME280;10170;42.502;26.526;2023-05-11T08:10:47;100344.75;;;15.57;100.00
20019;BME280;10170;42.502;26.526;2023-05-11T08:13:13;100359.06;;;15.69;100.00
20019;BME280;10170;42.502;26.526;2023-05-11T08:15:40;100346.84;;;14.99;100.00
20019;BME280;10170;42.502;26.526;2023-05-11T08:18:07;100344.63;;;15.21;100.00
20019;BME280;10170;42.502;26.526;2023-05-11T08:20:34;100355.78;;;14.87;100.00
20019;BME280;10170;42.502;26.526;2023-05-11T08:23:00;100352.59;;;14.34;100.00
20019;BME280;10170;42.502;26.526;2023-05-11T08:25:27;100359.59;;;14.22;100.00
20019;BME280;10170;42.502;26.526;2023-05-11T08:27:54;100342.69;;;14.34;100.00
20019;BME280;10170;42.502;26.526;2023-05-11T08:30:20;100370.31;;;14.28;100.00
20019;BME280;10170;42.502;26.526;2023-05-11T08:32:47;100363.16;;;14.60;100.00
20019;BME280;10170;42.502;26.526;2023-05-11T08:35:24;100357.59;;;14.61;100.00
20019;BME280;10170;42.502;26.526;2023-05-11T08:37:51;100373.31;;;14.51;100.00
20019;BME280;10170;42.502;26.526;2023-05-11T08:40:19;100359.28;;;14.56;100.00
20019;BME280;10170;42.502;26.526;2023-05-11T08:42:48;100370.47;;;14.46;100.00
20019;BME280;10170;42.502;26.526;2023-05-11T08:45:16;100342.97;;;14.26;100.00
20019;BME280;10170;42.502;26.526;2023-05-11T08:47:45;100366.84;;;14.65;100.00
20019;BME280;10170;42.502;26.526;2023-05-11T08:50:13;100358.13;;;14.76;100.00
20019;BME280;10170;42.502;26.526;2023-05-11T08:52:40;100343.94;;;15.01;100.00
20019;BME280;10170;42.502;26.526;2023-05-11T08:55:08;100353.28;;;14.92;100.00
20019;BME280;10170;42.502;26.526;2023-05-11T08:57:35;100334.03;;;14.76;100.00
20019;BME280;10170;42.502;26.526;2023-05-11T09:00:02;100355.34;;;15.21;100.00
20019;BME280;10170;42.502;26.526;2023-05-11T09:02:30;100347.16;;;15.16;100.00
20019;BME280;10170;42.502;26.526;2023-05-11T09:04:58;100347.28;;;14.65;100.00
20019;BME280;10170;42.502;26.526;2023-05-11T09:07:25;100339.69;;;14.62;100.00
20019;BME280;10170;42.502;26.526;2023-05-11T09:09:53;100344.91;;;14.82;100.00
20019;BME280;10170;42.502;26.526;2023-05-11T09:12:21;100335.16;;;15.67;100.00
20019;BME280;10170;42.502;26.526;2023-05-11T09:14:51;100330.06;;;15.41;100.00
20019;BME280;10170;42.502;26.526;2023-05-11T09:17:18;100335.25;;;15.97;96.36
20019;BME280;10170;42.502;26.526;2023-05-11T09:20:07;100346.31;;;15.40;94.44
20019;BME280;10170;42.502;26.526;2023-05-11T09:22:43;100338.09;;;15.41;92.16
20019;BME280;10170;42.502;26.526;2023-05-11T09:25:14;100343.78;;;15.20;92.02
20019;BME280;10170;42.502;26.526;2023-05-11T09:27:44;100332.28;;;15.20;94.66
20019;BME280;10170;42.502;26.526;2023-05-11T09:30:15;100325.75;;;15.34;92.91
20019;BME280;10170;42.502;26.526;2023-05-11T09:35:34;100349.44;;;15.12;91.60
20019;BME280;10170;42.502;26.526;2023-05-11T09:38:11;100335.50;;;15.04;89.51
20019;BME280;10170;42.502;26.526;2023-05-11T09:40:49;100339.03;;;14.98;89.91
20019;BME280;10170;42.502;26.526;2023-05-11T09:43:24;100337.72;;;15.31;91.57
20019;BME280;10170;42.502;26.526;2023-05-11T09:45:54;100326.03;;;15.26;91.97
20019;BME280;10170;42.502;26.526;2023-05-11T09:48:25;100334.31;;;15.67;87.79
20019;BME280;10170;42.502;26.526;2023-05-11T09:51:01;100326.38;;;16.15;81.71
20019;BME280;10170;42.502;26.526;2023-05-11T09:53:35;100333.31;;;16.04;84.91
20019;BME280;10170;42.502;26.526;2023-05-11T09:56:02;100313.84;;;15.91;84.33
20019;BME280;10170;42.502;26.526;2023-05-11T09:58:51;100342.63;;;15.83;82.05
20019;BME280;10170;42.502;26.526;2023-05-11T10:01:32;100324.09;;;15.33;84.69
20019;BME280;10170;42.502;26.526;2023-05-11T10:04:00;100321.22;;;15.34;86.07
20019;BME280;10170;42.502;26.526;2023-05-11T10:06:50;100317.75;;;16.42;83.68
20019;BME280;10170;42.502;26.526;2023-05-11T10:09:22;100319.19;;;16.27;79.85
20019;BME280;10170;42.502;26.526;2023-05-11T10:11:50;100317.13;;;15.93;80.20
20019;BME280;10170;42.502;26.526;2023-05-11T10:14:19;100321.19;;;16.49;78.77
20019;BME280;10170;42.502;26.526;2023-05-11T10:16:47;100292.75;;;17.24;74.54
20019;BME280;10170;42.502;26.526;2023-05-11T10:19:15;100297.47;;;16.46;78.24
20019;BME280;10170;42.502;26.526;2023-05-11T10:21:42;100308.72;;;16.96;80.98
20019;BME280;10170;42.502;26.526;2023-05-11T10:24:10;100304.28;;;16.31;79.74
20019;BME280;10170;42.502;26.526;2023-05-11T10:26:37;100312.50;;;15.81;81.44
20019;BME280;10170;42.502;26.526;2023-05-11T10:29:04;100313.94;;;15.84;86.12
20019;BME280;10170;42.502;26.526;2023-05-11T10:31:31;100311.41;;;16.07;84.24
20019;BME280;10170;42.502;26.526;2023-05-11T10:34:00;100306.31;;;16.17;82.41
20019;BME280;10170;42.502;26.526;2023-05-11T10:36:27;100304.78;;;16.57;80.39
20019;BME280;10170;42.502;26.526;2023-05-11T10:38:54;100306.31;;;16.65;75.96
20019;BME280;10170;42.502;26.526;2023-05-11T10:44:24;100305.59;;;16.58;74.89
20019;BME280;10170;42.502;26.526;2023-05-11T10:47:18;100314.34;;;16.17;79.61
20019;BME280;10170;42.502;26.526;2023-05-11T10:58:14;100308.03;;;15.94;81.92
20019;BME280;10170;42.502;26.526;2023-05-11T11:03:19;100313.22;;;16.25;79.42
20019;BME280;10170;42.502;26.526;2023-05-11T11:05:46;100300.53;;;16.91;79.54
20019;BME280;10170;42.502;26.526;2023-05-11T11:08:13;100309.91;;;17.00;77.20
20019;BME280;10170;42.502;26.526;2023-05-11T11:10:42;100299.41;;;16.57;79.96
20019;BME280;10170;42.502;26.526;2023-05-11T11:13:13;100304.94;;;16.26;82.26
20019;BME280;10170;42.502;26.526;2023-05-11T11:18:24;100303.47;;;16.60;80.06
20019;BME280;10170;42.502;26.526;2023-05-11T11:20:53;100303.97;;;16.39;73.04
20019;BME280;10170;42.502;26.526;2023-05-11T11:26:06;100284.72;;;15.76;80.32
20019;BME280;10170;42.502;26.526;2023-05-11T11:31:31;100304.84;;;16.03;80.41
20019;BME280;10170;42.502;26.526;2023-05-11T11:34:39;100290.38;;;16.93;76.41
20019;BME280;10170;42.502;26.526;2023-05-11T11:37:06;100295.22;;;16.61;74.46
20019;BME280;10170;42.502;26.526;2023-05-11T11:42:08;100282.94;;;16.65;74.48
20019;BME280;10170;42.502;26.526;2023-05-11T11:44:36;100286.09;;;16.33;77.32
20019;BME280;10170;42.502;26.526;2023-05-11T11:47:17;100292.50;;;16.32;76.15
20019;BME280;10170;42.502;26.526;2023-05-11T11:49:54;100282.63;;;16.85;76.75
20019;BME280;10170;42.502;26.526;2023-05-11T11:54:55;100276.25;;;16.98;79.23
20019;BME280;10170;42.502;26.526;2023-05-11T11:59:55;100276.03;;;17.11;76.78
20019;BME280;10170;42.502;26.526;2023-05-11T12:02:22;100271.47;;;17.11;74.55
20019;BME280;10170;42.502;26.526;2023-05-11T12:05:00;100257.91;;;17.41;74.09
20019;BME280;10170;42.502;26.526;2023-05-11T12:07:35;100267.25;;;17.27;78.34
20019;BME280;10170;42.502;26.526;2023-05-11T12:10:07;100276.59;;;16.48;77.99
20019;BME280;10170;42.502;26.526;2023-05-11T12:12:37;100264.31;;;16.11;78.18
20019;BME280;10170;42.502;26.526;2023-05-11T12:15:07;100261.41;;;15.95;78.75
20019;BME280;10170;42.502;26.526;2023-05-11T12:17:37;100271.47;;;15.81;82.63
20019;BME280;10170;42.502;26.526;2023-05-11T12:20:12;100244.13;;;15.54;82.88
20019;BME280;10170;42.502;26.526;2023-05-11T12:22:39;100242.00;;;16.11;79.16
20019;BME280;10170;42.502;26.526;2023-05-11T12:25:07;100237.94;;;15.90;78.08
20019;BME280;10170;42.502;26.526;2023-05-11T12:27:34;100244.13;;;15.91;82.79
20019;BME280;10170;42.502;26.526;2023-05-11T12:30:00;100239.75;;;15.60;86.23
20019;BME280;10170;42.502;26.526;2023-05-11T12:32:28;100238.72;;;15.61;88.47
20019;BME280;10170;42.502;26.526;2023-05-11T12:34:58;100240.41;;;15.92;84.03
20019;BME280;10170;42.502;26.526;2023-05-11T12:37:25;100251.09;;;16.39;79.40
20019;BME280;10170;42.502;26.526;2023-05-11T12:39:54;100242.53;;;16.60;76.34
20019;BME280;10170;42.502;26.526;2023-05-11T12:42:21;100249.00;;;16.12;75.67
20019;BME280;10170;42.502;26.526;2023-05-11T12:44:49;100231.03;;;16.42;77.09
20019;BME280;10170;42.502;26.526;2023-05-11T12:47:16;100235.94;;;16.15;78.07
20019;BME280;10170;42.502;26.526;2023-05-11T12:49:43;100262.75;;;16.04;77.08
20019;BME280;10170;42.502;26.526;2023-05-11T12:52:12;100240.53;;;15.97;74.13
20019;BME280;10170;42.502;26.526;2023-05-11T12:54:40;100273.25;;;15.69;74.65
20019;BME280;10170;42.502;26.526;2023-05-11T12:57:27;100239.69;;;15.48;77.52
20019;BME280;10170;42.502;26.526;2023-05-11T13:00:10;100232.13;;;15.39;79.87
20019;BME280;10170;42.502;26.526;2023-05-11T13:05:15;100238.94;;;16.37;73.13
20019;BME280;10170;42.502;26.526;2023-05-11T13:07:45;100218.25;;;15.96;73.82
20019;BME280;10170;42.502;26.526;2023-05-11T13:10:12;100216.78;;;17.06;71.38
20019;BME280;10170;42.502;26.526;2023-05-11T13:12:49;100248.34;;;16.99;71.12
20019;BME280;10170;42.502;26.526;2023-05-11T13:15:19;100239.38;;;16.52;73.11
20019;BME280;10170;42.502;26.526;2023-05-11T13:17:47;100232.31;;;16.80;72.64
20019;BME280;10170;42.502;26.526;2023-05-11T13:20:21;100223.06;;;16.24;71.83
20019;BME280;10170;42.502;26.526;2023-05-11T13:23:05;100236.47;;;15.58;76.21
20019;BME280;10170;42.502;26.526;2023-05-11T13:28:18;100230.13;;;16.48;74.29
20019;BME280;10170;42.502;26.526;2023-05-11T13:30:45;100229.13;;;17.76;71.42
20019;BME280;10170;42.502;26.526;2023-05-11T13:33:12;100243.56;;;17.01;70.43
20019;BME280;10170;42.502;26.526;2023-05-11T13:35:40;100229.44;;;15.93;73.30